sensor_id;sensor_type;location;lat;lon;timestamp;P1;durP1;ratioP1;P2;durP2;ratioP2
47804;SDS011;33568;45.286;9.900;2023-01-09T00:04:16;41.55;;;29.58;;
47804;SDS011;33568;45.286;9.900;2023-01-09T00:06:42;49.15;;;32.53;;
47804;SDS011;33568;45.286;9.900;2023-01-09T00:09:11;41.63;;;30.40;;
47804;SDS011;33568;45.286;9.900;2023-01-09T00:11:38;46.35;;;31.95;;
47804;SDS011;33568;45.286;9.900;2023-01-09T00:14:04;49.67;;;33.90;;
47804;SDS011;33568;45.286;9.900;2023-01-09T00:16:30;41.60;;;31.73;;
47804;SDS011;33568;45.286;9.900;2023-01-09T00:18:57;46.72;;;31.88;;
47804;SDS011;33568;45.286;9.900;2023-01-09T00:21:25;49.88;;;32.45;;
47804;SDS011;33568;45.286;9.900;2023-01-09T00:26:19;57.55;;;33.63;;
47804;SDS011;33568;45.286;9.900;2023-01-09T00:28:46;56.15;;;35.92;;
47804;SDS011;33568;45.286;9.900;2023-01-09T00:31:15;53.15;;;35.70;;
47804;SDS011;33568;45.286;9.900;2023-01-09T00:33:43;52.97;;;34.55;;
47804;SDS011;33568;45.286;9.900;2023-01-09T00:36:13;58.67;;;36.17;;
47804;SDS011;33568;45.286;9.900;2023-01-09T00:38:39;67.90;;;37.60;;
47804;SDS011;33568;45.286;9.900;2023-01-09T00:41:07;65.47;;;39.88;;
47804;SDS011;33568;45.286;9.900;2023-01-09T00:43:38;70.35;;;43.30;;
47804;SDS011;33568;45.286;9.900;2023-01-09T00:46:08;72.85;;;42.60;;
47804;SDS011;33568;45.286;9.900;2023-01-09T00:48:39;73.78;;;43.58;;
47804;SDS011;33568;45.286;9.900;2023-01-09T00:51:08;74.88;;;43.78;;
47804;SDS011;33568;45.286;9.900;2023-01-09T00:53:35;74.50;;;44.13;;
47804;SDS011;33568;45.286;9.900;2023-01-09T00:56:05;72.13;;;44.00;;
47804;SDS011;33568;45.286;9.900;2023-01-09T00:58:34;78.85;;;44.70;;
47804;SDS011;33568;45.286;9.900;2023-01-09T01:01:01;73.40;;;44.63;;
47804;SDS011;33568;45.286;9.900;2023-01-09T01:03:27;66.45;;;42.22;;
47804;SDS011;33568;45.286;9.900;2023-01-09T01:08:38;76.63;;;43.15;;
47804;SDS011;33568;45.286;9.900;2023-01-09T01:11:05;70.40;;;42.47;;
47804;SDS011;33568;45.286;9.900;2023-01-09T01:13:38;67.43;;;42.20;;
47804;SDS011;33568;45.286;9.900;2023-01-09T01:16:07;72.68;;;43.70;;
47804;SDS011;33568;45.286;9.900;2023-01-09T01:18:35;71.00;;;45.03;;
47804;SDS011;33568;45.286;9.900;2023-01-09T01:21:06;74.53;;;45.70;;
47804;SDS011;33568;45.286;9.900;2023-01-09T01:23:33;75.45;;;45.55;;
47804;SDS011;33568;45.286;9.900;2023-01-09T01:26:06;76.43;;;46.78;;
47804;SDS011;33568;45.286;9.900;2023-01-09T01:28:34;66.25;;;42.85;;
47804;SDS011;33568;45.286;9.900;2023-01-09T01:31:01;78.25;;;45.20;;
47804;SDS011;33568;45.286;9.900;2023-01-09T01:33:28;65.10;;;42.03;;
47804;SDS011;33568;45.286;9.900;2023-01-09T01:36:01;59.97;;;40.22;;
47804;SDS011;33568;45.286;9.900;2023-01-09T01:38:33;44.90;;;33.35;;
47804;SDS011;33568;45.286;9.900;2023-01-09T01:41:00;36.20;;;25.95;;
47804;SDS011;33568;45.286;9.900;2023-01-09T01:43:27;32.13;;;22.98;;
47804;SDS011;33568;45.286;9.900;2023-01-09T01:46:14;26.83;;;20.67;;
47804;SDS011;33568;45.286;9.900;2023-01-09T01:48:42;25.17;;;19.10;;
47804;SDS011;33568;45.286;9.900;2023-01-09T01:51:09;19.00;;;15.80;;
47804;SDS011;33568;45.286;9.900;2023-01-09T01:53:45;20.63;;;17.13;;
47804;SDS011;33568;45.286;9.900;2023-01-09T01:56:19;19.25;;;15.50;;
47804;SDS011;33568;45.286;9.900;2023-01-09T01:58:54;18.10;;;13.38;;
47804;SDS011;33568;45.286;9.900;2023-01-09T02:01:41;14.25;;;12.73;;
47804;SDS011;33568;45.286;9.900;2023-01-09T02:04:10;18.25;;;13.70;;
47804;SDS011;33568;45.286;9.900;2023-01-09T02:06:37;15.40;;;11.45;;
47804;SDS011;33568;45.286;9.900;2023-01-09T02:11:31;14.77;;;11.17;;
47804;SDS011;33568;45.286;9.900;2023-01-09T02:27:34;11.27;;;8.45;;
47804;SDS011;33568;45.286;9.900;2023-01-09T02:30:39;10.77;;;8.23;;
47804;SDS011;33568;45.286;9.900;2023-01-09T02:33:36;11.82;;;8.73;;
47804;SDS011;33568;45.286;9.900;2023-01-09T02:39:34;10.25;;;8.95;;
47804;SDS011;33568;45.286;9.900;2023-01-09T02:44:37;11.38;;;8.93;;
47804;SDS011;33568;45.286;9.900;2023-01-09T02:49:41;10.30;;;9.30;;
47804;SDS011;33568;45.286;9.900;2023-01-09T02:57:41;9.25;;;8.25;;
47804;SDS011;33568;45.286;9.900;2023-01-09T03:02:45;9.60;;;8.60;;
47804;SDS011;33568;45.286;9.900;2023-01-09T03:05:28;9.57;;;8.63;;
47804;SDS011;33568;45.286;9.900;2023-01-09T03:08:00;10.52;;;9.43;;
47804;SDS011;33568;45.286;9.900;2023-01-09T03:13:24;11.18;;;9.52;;
47804;SDS011;33568;45.286;9.900;2023-01-09T03:15:57;10.65;;;9.57;;
47804;SDS011;33568;45.286;9.900;2023-01-09T03:18:26;11.05;;;9.95;;
47804;SDS011;33568;45.286;9.900;2023-01-09T03:20:54;11.07;;;9.88;;
47804;SDS011;33568;45.286;9.900;2023-01-09T03:23:21;12.55;;;10.95;;
47804;SDS011;33568;45.286;9.900;2023-01-09T03:28:31;11.35;;;9.73;;
47804;SDS011;33568;45.286;9.900;2023-01-09T03:30:58;10.45;;;9.38;;
47804;SDS011;33568;45.286;9.900;2023-01-09T03:33:24;10.60;;;9.50;;
47804;SDS011;33568;45.286;9.900;2023-01-09T03:35:51;15.00;;;11.05;;
47804;SDS011;33568;45.286;9.900;2023-01-09T03:38:17;12.07;;;10.60;;
47804;SDS011;33568;45.286;9.900;2023-01-09T03:40:43;16.15;;;13.30;;
47804;SDS011;33568;45.286;9.900;2023-01-09T03:43:10;18.75;;;14.75;;
47804;SDS011;33568;45.286;9.900;2023-01-09T03:45:36;19.65;;;15.45;;
47804;SDS011;33568;45.286;9.900;2023-01-09T03:50:29;18.90;;;15.32;;
47804;SDS011;33568;45.286;9.900;2023-01-09T03:55:22;19.92;;;16.20;;
47804;SDS011;33568;45.286;9.900;2023-01-09T03:57:48;19.27;;;16.27;;
47804;SDS011;33568;45.286;9.900;2023-01-09T04:02:41;16.48;;;13.38;;
47804;SDS011;33568;45.286;9.900;2023-01-09T04:07:34;14.65;;;12.48;;
47804;SDS011;33568;45.286;9.900;2023-01-09T04:10:00;13.35;;;11.82;;
47804;SDS011;33568;45.286;9.900;2023-01-09T04:12:26;13.30;;;11.50;;
47804;SDS011;33568;45.286;9.900;2023-01-09T04:14:53;11.77;;;10.25;;
47804;SDS011;33568;45.286;9.900;2023-01-09T04:17:19;10.80;;;9.70;;
47804;SDS011;33568;45.286;9.900;2023-01-09T04:19:46;10.15;;;9.10;;
47804;SDS011;33568;45.286;9.900;2023-01-09T04:22:12;10.80;;;9.65;;
47804;SDS011;33568;45.286;9.900;2023-01-09T04:24:38;10.40;;;8.52;;
47804;SDS011;33568;45.286;9.900;2023-01-09T04:27:05;9.77;;;8.15;;
47804;SDS011;33568;45.286;9.900;2023-01-09T04:29:31;9.25;;;8.40;;
47804;SDS011;33568;45.286;9.900;2023-01-09T04:31:57;9.27;;;8.38;;
47804;SDS011;33568;45.286;9.900;2023-01-09T04:34:24;9.15;;;8.18;;
47804;SDS011;33568;45.286;9.900;2023-01-09T04:36:51;9.60;;;8.70;;
47804;SDS011;33568;45.286;9.900;2023-01-09T04:39:20;9.88;;;8.48;;
47804;SDS011;33568;45.286;9.900;2023-01-09T04:44:16;11.30;;;9.18;;
47804;SDS011;33568;45.286;9.900;2023-01-09T04:46:47;12.02;;;10.82;;
47804;SDS011;33568;45.286;9.900;2023-01-09T04:49:14;12.75;;;10.80;;
47804;SDS011;33568;45.286;9.900;2023-01-09T04:54:07;12.55;;;10.23;;
47804;SDS011;33568;45.286;9.900;2023-01-09T04:56:33;10.98;;;9.88;;
47804;SDS011;33568;45.286;9.900;2023-01-09T04:59:01;11.00;;;9.90;;
47804;SDS011;33568;45.286;9.900;2023-01-09T05:01:28;12.02;;;9.30;;
47804;SDS011;33568;45.286;9.900;2023-01-09T05:03:55;10.60;;;9.45;;
47804;SDS011;33568;45.286;9.900;2023-01-09T05:06:22;11.55;;;10.40;;
47804;SDS011;33568;45.286;9.900;2023-01-09T05:08:48;11.18;;;10.10;;
47804;SDS011;33568;45.286;9.900;2023-01-09T05:11:15;11.70;;;9.48;;
47804;SDS011;33568;45.286;9.900;2023-01-09T05:16:08;16.75;;;10.80;;
47804;SDS011;33568;45.286;9.900;2023-01-09T05:21:01;11.52;;;9.95;;
47804;SDS011;33568;45.286;9.900;2023-01-09T05:23:27;15.10;;;11.25;;
47804;SDS011;33568;45.286;9.900;2023-01-09T05:25:53;12.75;;;11.43;;
47804;SDS011;33568;45.286;9.900;2023-01-09T05:28:20;12.00;;;10.75;;
47804;SDS011;33568;45.286;9.900;2023-01-09T05:30:46;11.35;;;10.13;;
47804;SDS011;33568;45.286;9.900;2023-01-09T05:33:14;12.40;;;11.10;;
47804;SDS011;33568;45.286;9.900;2023-01-09T05:35:40;10.25;;;9.27;;
47804;SDS011;33568;45.286;9.900;2023-01-09T05:38:06;11.25;;;9.98;;
47804;SDS011;33568;45.286;9.900;2023-01-09T05:40:33;13.35;;;9.65;;
47804;SDS011;33568;45.286;9.900;2023-01-09T05:42:59;11.15;;;10.15;;
47804;SDS011;33568;45.286;9.900;2023-01-09T05:45:26;11.50;;;10.32;;
47804;SDS011;33568;45.286;9.900;2023-01-09T05:50:19;11.60;;;10.13;;
47804;SDS011;33568;45.286;9.900;2023-01-09T05:55:11;12.32;;;10.75;;
47804;SDS011;33568;45.286;9.900;2023-01-09T05:57:38;12.10;;;10.82;;
47804;SDS011;33568;45.286;9.900;2023-01-09T06:04:58;15.57;;;13.23;;
47804;SDS011;33568;45.286;9.900;2023-01-09T06:07:25;15.55;;;12.88;;
47804;SDS011;33568;45.286;9.900;2023-01-09T06:09:52;17.08;;;14.43;;
47804;SDS011;33568;45.286;9.900;2023-01-09T06:12:18;22.15;;;15.55;;
47804;SDS011;33568;45.286;9.900;2023-01-09T06:14:44;22.08;;;14.23;;
47804;SDS011;33568;45.286;9.900;2023-01-09T06:17:11;22.90;;;16.65;;
47804;SDS011;33568;45.286;9.900;2023-01-09T06:19:37;24.27;;;17.98;;
47804;SDS011;33568;45.286;9.900;2023-01-09T06:22:04;21.92;;;17.85;;
47804;SDS011;33568;45.286;9.900;2023-01-09T06:24:30;27.50;;;20.92;;
47804;SDS011;33568;45.286;9.900;2023-01-09T06:26:56;25.85;;;20.08;;
47804;SDS011;33568;45.286;9.900;2023-01-09T06:29:23;30.20;;;21.20;;
47804;SDS011;33568;45.286;9.900;2023-01-09T06:31:49;29.38;;;21.75;;
47804;SDS011;33568;45.286;9.900;2023-01-09T06:34:17;25.48;;;20.25;;
47804;SDS011;33568;45.286;9.900;2023-01-09T06:36:43;30.92;;;21.23;;
47804;SDS011;33568;45.286;9.900;2023-01-09T06:39:10;34.33;;;23.70;;
47804;SDS011;33568;45.286;9.900;2023-01-09T06:41:38;33.63;;;23.85;;
47804;SDS011;33568;45.286;9.900;2023-01-09T06:44:04;35.75;;;24.08;;
47804;SDS011;33568;45.286;9.900;2023-01-09T06:46:31;36.53;;;24.45;;
47804;SDS011;33568;45.286;9.900;2023-01-09T06:48:57;35.97;;;24.33;;
47804;SDS011;33568;45.286;9.900;2023-01-09T06:53:50;36.25;;;22.30;;
47804;SDS011;33568;45.286;9.900;2023-01-09T06:56:16;45.47;;;27.13;;
47804;SDS011;33568;45.286;9.900;2023-01-09T06:58:44;46.55;;;27.60;;
47804;SDS011;33568;45.286;9.900;2023-01-09T07:03:37;52.45;;;31.08;;
47804;SDS011;33568;45.286;9.900;2023-01-09T07:06:03;52.05;;;30.15;;
47804;SDS011;33568;45.286;9.900;2023-01-09T07:08:30;58.97;;;33.63;;
47804;SDS011;33568;45.286;9.900;2023-01-09T07:10:57;64.20;;;35.33;;
47804;SDS011;33568;45.286;9.900;2023-01-09T07:13:23;71.47;;;34.80;;
47804;SDS011;33568;45.286;9.900;2023-01-09T07:15:49;78.68;;;39.65;;
47804;SDS011;33568;45.286;9.900;2023-01-09T07:18:18;76.53;;;38.67;;
47804;SDS011;33568;45.286;9.900;2023-01-09T07:20:45;77.72;;;38.72;;
47804;SDS011;33568;45.286;9.900;2023-01-09T07:23:12;84.63;;;36.70;;
47804;SDS011;33568;45.286;9.900;2023-01-09T07:25:40;67.72;;;34.13;;
47804;SDS011;33568;45.286;9.900;2023-01-09T07:28:07;70.88;;;37.72;;
47804;SDS011;33568;45.286;9.900;2023-01-09T07:30:33;78.95;;;35.70;;
47804;SDS011;33568;45.286;9.900;2023-01-09T07:33:00;65.70;;;34.40;;
47804;SDS011;33568;45.286;9.900;2023-01-09T07:35:26;65.40;;;34.13;;
47804;SDS011;33568;45.286;9.900;2023-01-09T07:37:52;56.28;;;32.88;;
47804;SDS011;33568;45.286;9.900;2023-01-09T07:40:19;58.20;;;33.67;;
47804;SDS011;33568;45.286;9.900;2023-01-09T07:42:46;54.17;;;32.35;;
47804;SDS011;33568;45.286;9.900;2023-01-09T07:47:39;50.97;;;29.95;;
47804;SDS011;33568;45.286;9.900;2023-01-09T07:50:07;48.28;;;30.65;;
47804;SDS011;33568;45.286;9.900;2023-01-09T07:52:34;51.92;;;31.95;;
47804;SDS011;33568;45.286;9.900;2023-01-09T07:55:00;51.75;;;31.70;;
47804;SDS011;33568;45.286;9.900;2023-01-09T07:57:27;47.78;;;30.67;;
47804;SDS011;33568;45.286;9.900;2023-01-09T07:59:55;52.50;;;30.63;;
47804;SDS011;33568;45.286;9.900;2023-01-09T08:02:22;45.22;;;29.35;;
47804;SDS011;33568;45.286;9.900;2023-01-09T08:04:48;45.17;;;29.20;;
47804;SDS011;33568;45.286;9.900;2023-01-09T08:07:14;40.13;;;27.27;;
47804;SDS011;33568;45.286;9.900;2023-01-09T08:09:41;31.00;;;24.38;;
47804;SDS011;33568;45.286;9.900;2023-01-09T08:12:07;33.33;;;25.77;;
47804;SDS011;33568;45.286;9.900;2023-01-09T08:14:33;35.10;;;23.77;;
47804;SDS011;33568;45.286;9.900;2023-01-09T08:17:00;28.98;;;24.75;;
47804;SDS011;33568;45.286;9.900;2023-01-09T08:19:27;33.97;;;26.10;;
47804;SDS011;33568;45.286;9.900;2023-01-09T08:21:53;30.05;;;25.15;;
47804;SDS011;33568;45.286;9.900;2023-01-09T08:24:20;41.70;;;24.17;;
47804;SDS011;33568;45.286;9.900;2023-01-09T08:26:46;28.70;;;24.40;;
47804;SDS011;33568;45.286;9.900;2023-01-09T08:29:13;27.45;;;24.45;;
47804;SDS011;33568;45.286;9.900;2023-01-09T08:31:39;31.10;;;22.88;;
47804;SDS011;33568;45.286;9.900;2023-01-09T08:34:05;28.70;;;24.02;;
47804;SDS011;33568;45.286;9.900;2023-01-09T08:36:32;27.10;;;24.15;;
47804;SDS011;33568;45.286;9.900;2023-01-09T08:38:58;28.42;;;25.33;;
47804;SDS011;33568;45.286;9.900;2023-01-09T08:41:25;29.55;;;25.23;;
47804;SDS011;33568;45.286;9.900;2023-01-09T08:44:09;28.20;;;25.40;;
47804;SDS011;33568;45.286;9.900;2023-01-09T08:46:54;27.48;;;24.58;;
47804;SDS011;33568;45.286;9.900;2023-01-09T08:49:30;28.77;;;25.75;;
47804;SDS011;33568;45.286;9.900;2023-01-09T08:51:58;28.35;;;25.45;;
47804;SDS011;33568;45.286;9.900;2023-01-09T08:56:50;25.75;;;23.25;;
47804;SDS011;33568;45.286;9.900;2023-01-09T08:59:17;25.80;;;23.20;;
47804;SDS011;33568;45.286;9.900;2023-01-09T09:01:43;23.38;;;21.10;;
47804;SDS011;33568;45.286;9.900;2023-01-09T09:04:10;24.90;;;22.40;;
47804;SDS011;33568;45.286;9.900;2023-01-09T09:06:36;24.60;;;22.02;;
47804;SDS011;33568;45.286;9.900;2023-01-09T09:09:02;24.02;;;21.65;;
47804;SDS011;33568;45.286;9.900;2023-01-09T09:11:29;24.95;;;22.55;;
47804;SDS011;33568;45.286;9.900;2023-01-09T09:13:56;25.33;;;22.75;;
47804;SDS011;33568;45.286;9.900;2023-01-09T09:16:24;23.65;;;21.30;;
47804;SDS011;33568;45.286;9.900;2023-01-09T09:18:51;23.75;;;21.48;;
47804;SDS011;33568;45.286;9.900;2023-01-09T09:21:18;25.40;;;22.95;;
47804;SDS011;33568;45.286;9.900;2023-01-09T09:23:45;26.38;;;23.05;;
47804;SDS011;33568;45.286;9.900;2023-01-09T09:28:38;25.42;;;22.38;;
47804;SDS011;33568;45.286;9.900;2023-01-09T09:31:04;24.35;;;21.98;;
47804;SDS011;33568;45.286;9.900;2023-01-09T09:33:32;26.20;;;23.50;;
47804;SDS011;33568;45.286;9.900;2023-01-09T09:35:58;23.52;;;21.10;;
47804;SDS011;33568;45.286;9.900;2023-01-09T09:41:01;23.25;;;20.77;;
47804;SDS011;33568;45.286;9.900;2023-01-09T09:46:45;22.80;;;19.73;;
47804;SDS011;33568;45.286;9.900;2023-01-09T09:49:17;23.42;;;21.02;;
47804;SDS011;33568;45.286;9.900;2023-01-09T09:51:59;23.73;;;21.33;;
47804;SDS011;33568;45.286;9.900;2023-01-09T09:54:34;23.45;;;20.98;;
47804;SDS011;33568;45.286;9.900;2023-01-09T09:57:05;23.25;;;20.90;;
47804;SDS011;33568;45.286;9.900;2023-01-09T09:59:38;23.80;;;21.35;;
47804;SDS011;33568;45.286;9.900;2023-01-09T10:04:40;20.75;;;18.60;;
47804;SDS011;33568;45.286;9.900;2023-01-09T10:07:21;24.10;;;21.58;;
47804;SDS011;33568;45.286;9.900;2023-01-09T10:09:51;26.85;;;22.60;;
47804;SDS011;33568;45.286;9.900;2023-01-09T10:12:29;23.80;;;21.33;;
47804;SDS011;33568;45.286;9.900;2023-01-09T10:15:08;23.25;;;20.75;;
47804;SDS011;33568;45.286;9.900;2023-01-09T10:20:56;26.30;;;22.67;;
47804;SDS011;33568;45.286;9.900;2023-01-09T10:23:47;31.48;;;22.05;;
47804;SDS011;33568;45.286;9.900;2023-01-09T10:27:06;25.50;;;22.30;;
47804;SDS011;33568;45.286;9.900;2023-01-09T10:29:42;25.00;;;22.35;;
47804;SDS011;33568;45.286;9.900;2023-01-09T10:32:29;34.40;;;27.38;;
47804;SDS011;33568;45.286;9.900;2023-01-09T10:37:43;27.02;;;22.60;;
47804;SDS011;33568;45.286;9.900;2023-01-09T10:43:06;25.02;;;22.42;;
47804;SDS011;33568;45.286;9.900;2023-01-09T10:45:45;26.38;;;22.35;;
47804;SDS011;33568;45.286;9.900;2023-01-09T10:48:21;20.33;;;18.23;;
47804;SDS011;33568;45.286;9.900;2023-01-09T10:50:53;24.15;;;21.40;;
47804;SDS011;33568;45.286;9.900;2023-01-09T10:53:22;21.30;;;18.88;;
47804;SDS011;33568;45.286;9.900;2023-01-09T10:56:02;23.85;;;19.77;;
47804;SDS011;33568;45.286;9.900;2023-01-09T10:58:38;20.58;;;18.48;;
47804;SDS011;33568;45.286;9.900;2023-01-09T11:01:04;25.88;;;21.48;;
47804;SDS011;33568;45.286;9.900;2023-01-09T11:03:32;19.90;;;17.73;;
47804;SDS011;33568;45.286;9.900;2023-01-09T11:05:58;17.95;;;16.00;;
47804;SDS011;33568;45.286;9.900;2023-01-09T11:08:36;22.35;;;18.15;;
47804;SDS011;33568;45.286;9.900;2023-01-09T11:11:07;16.55;;;13.57;;
47804;SDS011;33568;45.286;9.900;2023-01-09T11:13:35;19.15;;;17.35;;
47804;SDS011;33568;45.286;9.900;2023-01-09T11:18:33;16.75;;;15.00;;
47804;SDS011;33568;45.286;9.900;2023-01-09T11:21:12;15.52;;;13.93;;
47804;SDS011;33568;45.286;9.900;2023-01-09T11:23:51;22.45;;;19.80;;
47804;SDS011;33568;45.286;9.900;2023-01-09T11:26:22;17.15;;;15.38;;
47804;SDS011;33568;45.286;9.900;2023-01-09T11:29:06;17.65;;;15.82;;
47804;SDS011;33568;45.286;9.900;2023-01-09T11:31:36;17.75;;;15.95;;
47804;SDS011;33568;45.286;9.900;2023-01-09T11:34:05;17.05;;;15.23;;
47804;SDS011;33568;45.286;9.900;2023-01-09T11:36:40;19.40;;;17.40;;
47804;SDS011;33568;45.286;9.900;2023-01-09T11:41:44;17.10;;;14.88;;
47804;SDS011;33568;45.286;9.900;2023-01-09T11:44:10;19.20;;;13.90;;
47804;SDS011;33568;45.286;9.900;2023-01-09T11:46:40;17.02;;;14.90;;
47804;SDS011;33568;45.286;9.900;2023-01-09T11:49:30;14.85;;;13.32;;
47804;SDS011;33568;45.286;9.900;2023-01-09T11:52:15;20.08;;;16.30;;
47804;SDS011;33568;45.286;9.900;2023-01-09T11:55:20;19.90;;;17.67;;
47804;SDS011;33568;45.286;9.900;2023-01-09T11:57:43;18.52;;;16.45;;
47804;SDS011;33568;45.286;9.900;2023-01-09T12:00:19;15.55;;;13.93;;
47804;SDS011;33568;45.286;9.900;2023-01-09T12:08:36;13.20;;;10.73;;
47804;SDS011;33568;45.286;9.900;2023-01-09T12:14:44;12.85;;;11.55;;
47804;SDS011;33568;45.286;9.900;2023-01-09T12:20:08;11.40;;;10.20;;
47804;SDS011;33568;45.286;9.900;2023-01-09T12:23:00;16.90;;;14.45;;
47804;SDS011;33568;45.286;9.900;2023-01-09T12:28:18;13.75;;;12.15;;
47804;SDS011;33568;45.286;9.900;2023-01-09T12:31:17;11.25;;;10.15;;
47804;SDS011;33568;45.286;9.900;2023-01-09T12:38:54;11.80;;;10.32;;
47804;SDS011;33568;45.286;9.900;2023-01-09T12:55:35;16.15;;;11.52;;
47804;SDS011;33568;45.286;9.900;2023-01-09T12:58:11;22.92;;;13.20;;
47804;SDS011;33568;45.286;9.900;2023-01-09T13:00:56;15.25;;;12.45;;
47804;SDS011;33568;45.286;9.900;2023-01-09T13:06:04;18.20;;;16.02;;
47804;SDS011;33568;45.286;9.900;2023-01-09T13:08:59;14.82;;;12.98;;
47804;SDS011;33568;45.286;9.900;2023-01-09T13:17:06;38.88;;;28.70;;
47804;SDS011;33568;45.286;9.900;2023-01-09T13:19:46;29.38;;;15.75;;
47804;SDS011;33568;45.286;9.900;2023-01-09T13:22:13;14.07;;;11.98;;
47804;SDS011;33568;45.286;9.900;2023-01-09T13:27:31;18.20;;;16.30;;
47804;SDS011;33568;45.286;9.900;2023-01-09T13:30:13;16.13;;;14.52;;
47804;SDS011;33568;45.286;9.900;2023-01-09T13:33:16;24.98;;;22.27;;
47804;SDS011;33568;45.286;9.900;2023-01-09T13:35:56;22.30;;;20.00;;
47804;SDS011;33568;45.286;9.900;2023-01-09T13:38:27;21.60;;;17.75;;
47804;SDS011;33568;45.286;9.900;2023-01-09T13:41:12;17.98;;;16.15;;
47804;SDS011;33568;45.286;9.900;2023-01-09T13:43:59;20.08;;;17.92;;
47804;SDS011;33568;45.286;9.900;2023-01-09T13:49:27;22.15;;;18.10;;
47804;SDS011;33568;45.286;9.900;2023-01-09T13:52:04;22.50;;;20.13;;
47804;SDS011;33568;45.286;9.900;2023-01-09T14:00:45;21.83;;;19.52;;
47804;SDS011;33568;45.286;9.900;2023-01-09T14:05:12;23.20;;;20.33;;
47804;SDS011;33568;45.286;9.900;2023-01-09T14:07:41;29.48;;;23.65;;
47804;SDS011;33568;45.286;9.900;2023-01-09T14:12:46;23.30;;;19.55;;
47804;SDS011;33568;45.286;9.900;2023-01-09T14:15:23;20.70;;;18.67;;
47804;SDS011;33568;45.286;9.900;2023-01-09T14:18:06;19.95;;;17.95;;
47804;SDS011;33568;45.286;9.900;2023-01-09T14:20:45;18.50;;;16.38;;
47804;SDS011;33568;45.286;9.900;2023-01-09T14:23:20;23.73;;;17.75;;
47804;SDS011;33568;45.286;9.900;2023-01-09T14:25:52;18.55;;;16.55;;
47804;SDS011;33568;45.286;9.900;2023-01-09T14:28:21;23.42;;;20.92;;
47804;SDS011;33568;45.286;9.900;2023-01-09T14:44:07;21.73;;;18.38;;
47804;SDS011;33568;45.286;9.900;2023-01-09T14:46:53;19.77;;;17.60;;
47804;SDS011;33568;45.286;9.900;2023-01-09T14:52:08;20.60;;;17.88;;
47804;SDS011;33568;45.286;9.900;2023-01-09T14:54:46;19.45;;;17.45;;
47804;SDS011;33568;45.286;9.900;2023-01-09T14:57:30;19.05;;;17.05;;
47804;SDS011;33568;45.286;9.900;2023-01-09T15:02:37;16.40;;;14.70;;
47804;SDS011;33568;45.286;9.900;2023-01-09T15:05:10;15.20;;;13.57;;
47804;SDS011;33568;45.286;9.900;2023-01-09T15:07:42;15.57;;;13.93;;
47804;SDS011;33568;45.286;9.900;2023-01-09T15:12:44;17.70;;;14.98;;
47804;SDS011;33568;45.286;9.900;2023-01-09T15:15:14;18.73;;;14.50;;
47804;SDS011;33568;45.286;9.900;2023-01-09T15:17:43;14.45;;;12.68;;
47804;SDS011;33568;45.286;9.900;2023-01-09T15:20:16;17.85;;;14.77;;
47804;SDS011;33568;45.286;9.900;2023-01-09T15:22:49;20.55;;;16.17;;
47804;SDS011;33568;45.286;9.900;2023-01-09T15:25:27;22.65;;;16.45;;
47804;SDS011;33568;45.286;9.900;2023-01-09T15:28:21;20.58;;;16.00;;
47804;SDS011;33568;45.286;9.900;2023-01-09T15:30:52;19.70;;;15.20;;
47804;SDS011;33568;45.286;9.900;2023-01-09T15:33:21;19.45;;;15.23;;
47804;SDS011;33568;45.286;9.900;2023-01-09T15:35:48;16.27;;;12.80;;
47804;SDS011;33568;45.286;9.900;2023-01-09T15:38:17;16.27;;;13.57;;
47804;SDS011;33568;45.286;9.900;2023-01-09T15:40:53;16.83;;;13.88;;
47804;SDS011;33568;45.286;9.900;2023-01-09T15:43:29;18.98;;;15.40;;
47804;SDS011;33568;45.286;9.900;2023-01-09T15:45:56;16.05;;;12.70;;
47804;SDS011;33568;45.286;9.900;2023-01-09T15:50:55;15.45;;;13.20;;
47804;SDS011;33568;45.286;9.900;2023-01-09T15:53:26;18.05;;;14.15;;
47804;SDS011;33568;45.286;9.900;2023-01-09T15:56:27;14.32;;;12.27;;
47804;SDS011;33568;45.286;9.900;2023-01-09T15:58:55;16.23;;;13.25;;
47804;SDS011;33568;45.286;9.900;2023-01-09T16:01:27;18.90;;;13.68;;
47804;SDS011;33568;45.286;9.900;2023-01-09T16:04:13;21.33;;;13.00;;
47804;SDS011;33568;45.286;9.900;2023-01-09T16:06:43;25.88;;;18.98;;
47804;SDS011;33568;45.286;9.900;2023-01-09T16:11:49;18.17;;;13.43;;
47804;SDS011;33568;45.286;9.900;2023-01-09T16:16:45;20.13;;;15.57;;
47804;SDS011;33568;45.286;9.900;2023-01-09T16:20:11;22.90;;;17.05;;
47804;SDS011;33568;45.286;9.900;2023-01-09T16:22:02;23.08;;;18.33;;
47804;SDS011;33568;45.286;9.900;2023-01-09T16:24:38;25.42;;;16.85;;
47804;SDS011;33568;45.286;9.900;2023-01-09T16:27:25;20.02;;;15.82;;
47804;SDS011;33568;45.286;9.900;2023-01-09T16:29:55;22.33;;;14.05;;
47804;SDS011;33568;45.286;9.900;2023-01-09T16:32:25;18.30;;;14.68;;
47804;SDS011;33568;45.286;9.900;2023-01-09T16:35:04;17.13;;;14.07;;
47804;SDS011;33568;45.286;9.900;2023-01-09T16:37:38;23.13;;;14.68;;
47804;SDS011;33568;45.286;9.900;2023-01-09T16:42:42;23.75;;;16.55;;
47804;SDS011;33568;45.286;9.900;2023-01-09T16:45:40;18.25;;;15.65;;
47804;SDS011;33568;45.286;9.900;2023-01-09T16:48:14;24.88;;;16.70;;
47804;SDS011;33568;45.286;9.900;2023-01-09T16:50:42;19.50;;;15.20;;
47804;SDS011;33568;45.286;9.900;2023-01-09T16:53:20;16.52;;;13.85;;
47804;SDS011;33568;45.286;9.900;2023-01-09T16:55:49;19.63;;;14.90;;
47804;SDS011;33568;45.286;9.900;2023-01-09T16:58:22;15.65;;;13.48;;
47804;SDS011;33568;45.286;9.900;2023-01-09T17:00:51;17.27;;;14.20;;
47804;SDS011;33568;45.286;9.900;2023-01-09T17:03:18;21.08;;;15.73;;
47804;SDS011;33568;45.286;9.900;2023-01-09T17:05:54;22.67;;;16.88;;
47804;SDS011;33568;45.286;9.900;2023-01-09T17:08:24;23.55;;;17.25;;
47804;SDS011;33568;45.286;9.900;2023-01-09T17:10:55;21.77;;;15.55;;
47804;SDS011;33568;45.286;9.900;2023-01-09T17:13:23;25.08;;;14.85;;
47804;SDS011;33568;45.286;9.900;2023-01-09T17:15:56;22.88;;;16.50;;
47804;SDS011;33568;45.286;9.900;2023-01-09T17:18:24;23.35;;;18.33;;
47804;SDS011;33568;45.286;9.900;2023-01-09T17:20:53;31.63;;;24.70;;
47804;SDS011;33568;45.286;9.900;2023-01-09T17:23:21;21.67;;;19.23;;
47804;SDS011;33568;45.286;9.900;2023-01-09T17:25:48;29.10;;;20.05;;
47804;SDS011;33568;45.286;9.900;2023-01-09T17:28:34;24.40;;;15.57;;
47804;SDS011;33568;45.286;9.900;2023-01-09T17:31:03;20.17;;;15.98;;
47804;SDS011;33568;45.286;9.900;2023-01-09T17:33:32;19.38;;;14.77;;
47804;SDS011;33568;45.286;9.900;2023-01-09T17:36:00;19.88;;;15.52;;
47804;SDS011;33568;45.286;9.900;2023-01-09T17:38:27;19.90;;;15.95;;
47804;SDS011;33568;45.286;9.900;2023-01-09T17:43:20;18.00;;;14.63;;
47804;SDS011;33568;45.286;9.900;2023-01-09T17:45:47;19.35;;;15.75;;
47804;SDS011;33568;45.286;9.900;2023-01-09T17:48:14;21.85;;;16.45;;
47804;SDS011;33568;45.286;9.900;2023-01-09T17:50:42;20.52;;;15.45;;
47804;SDS011;33568;45.286;9.900;2023-01-09T17:53:10;27.50;;;19.13;;
47804;SDS011;33568;45.286;9.900;2023-01-09T17:55:37;27.02;;;21.45;;
47804;SDS011;33568;45.286;9.900;2023-01-09T17:58:04;24.52;;;18.67;;
47804;SDS011;33568;45.286;9.900;2023-01-09T18:00:32;20.17;;;17.65;;
47804;SDS011;33568;45.286;9.900;2023-01-09T18:03:04;25.77;;;17.98;;
47804;SDS011;33568;45.286;9.900;2023-01-09T18:05:32;23.17;;;17.70;;
47804;SDS011;33568;45.286;9.900;2023-01-09T18:10:25;24.92;;;16.95;;